sensor_id;sensor_type;location;lat;lon;timestamp;P1;durP1;ratioP1;P2;durP2;ratioP2
17441;SDS011;8838;50.144;8.176;2023-02-01T00:01:22;13.30;;;7.50;;
17441;SDS011;8838;50.144;8.176;2023-02-01T00:03:50;8.63;;;6.37;;
17441;SDS011;8838;50.144;8.176;2023-02-01T00:06:17;8.43;;;6.80;;
17441;SDS011;8838;50.144;8.176;2023-02-01T00:08:44;8.43;;;6.17;;
17441;SDS011;8838;50.144;8.176;2023-02-01T00:11:11;7.20;;;5.60;;
17441;SDS011;8838;50.144;8.176;2023-02-01T00:13:39;7.93;;;5.43;;
17441;SDS011;8838;50.144;8.176;2023-02-01T00:16:07;7.97;;;5.60;;
17441;SDS011;8838;50.144;8.176;2023-02-01T00:18:38;7.47;;;5.50;;
17441;SDS011;8838;50.144;8.176;2023-02-01T00:21:05;9.20;;;5.90;;
17441;SDS011;8838;50.144;8.176;2023-02-01T00:23:32;8.67;;;5.70;;
17441;SDS011;8838;50.144;8.176;2023-02-01T00:26:00;7.40;;;5.20;;
17441;SDS011;8838;50.144;8.176;2023-02-01T00:28:27;7.63;;;5.60;;
17441;SDS011;8838;50.144;8.176;2023-02-01T00:30:57;7.33;;;5.10;;
17441;SDS011;8838;50.144;8.176;2023-02-01T00:33:24;8.07;;;4.97;;
17441;SDS011;8838;50.144;8.176;2023-02-01T00:35:55;7.83;;;5.07;;
17441;SDS011;8838;50.144;8.176;2023-02-01T00:38:23;6.17;;;4.60;;
17441;SDS011;8838;50.144;8.176;2023-02-01T00:40:50;7.43;;;4.80;;
17441;SDS011;8838;50.144;8.176;2023-02-01T00:43:16;7.93;;;4.40;;
17441;SDS011;8838;50.144;8.176;2023-02-01T00:45:44;7.10;;;4.57;;
17441;SDS011;8838;50.144;8.176;2023-02-01T00:48:11;8.93;;;4.97;;
17441;SDS011;8838;50.144;8.176;2023-02-01T00:50:40;8.80;;;4.93;;
17441;SDS011;8838;50.144;8.176;2023-02-01T00:53:09;6.77;;;4.63;;
17441;SDS011;8838;50.144;8.176;2023-02-01T00:55:36;7.17;;;5.00;;
17441;SDS011;8838;50.144;8.176;2023-02-01T00:58:03;8.23;;;5.50;;
17441;SDS011;8838;50.144;8.176;2023-02-01T01:00:31;9.13;;;5.73;;
17441;SDS011;8838;50.144;8.176;2023-02-01T01:02:58;8.90;;;6.00;;
17441;SDS011;8838;50.144;8.176;2023-02-01T01:05:25;8.53;;;5.87;;
17441;SDS011;8838;50.144;8.176;2023-02-01T01:07:55;8.90;;;6.70;;
17441;SDS011;8838;50.144;8.176;2023-02-01T01:10:23;7.33;;;5.83;;
17441;SDS011;8838;50.144;8.176;2023-02-01T01:12:50;9.00;;;6.17;;
17441;SDS011;8838;50.144;8.176;2023-02-01T01:15:16;11.20;;;6.50;;
17441;SDS011;8838;50.144;8.176;2023-02-01T01:17:43;8.43;;;5.90;;
17441;SDS011;8838;50.144;8.176;2023-02-01T01:20:11;12.00;;;6.40;;
17441;SDS011;8838;50.144;8.176;2023-02-01T01:22:38;9.73;;;6.40;;
17441;SDS011;8838;50.144;8.176;2023-02-01T01:25:05;7.93;;;6.30;;
17441;SDS011;8838;50.144;8.176;2023-02-01T01:27:34;8.33;;;6.00;;
17441;SDS011;8838;50.144;8.176;2023-02-01T01:30:01;9.50;;;6.17;;
17441;SDS011;8838;50.144;8.176;2023-02-01T01:32:27;10.13;;;6.50;;
17441;SDS011;8838;50.144;8.176;2023-02-01T01:34:54;8.10;;;6.17;;
17441;SDS011;8838;50.144;8.176;2023-02-01T01:37:21;9.23;;;6.00;;
17441;SDS011;8838;50.144;8.176;2023-02-01T01:39:48;8.20;;;5.60;;
17441;SDS011;8838;50.144;8.176;2023-02-01T01:42:15;8.73;;;5.20;;
17441;SDS011;8838;50.144;8.176;2023-02-01T01:44:59;7.17;;;5.30;;
17441;SDS011;8838;50.144;8.176;2023-02-01T01:47:29;9.07;;;5.97;;
17441;SDS011;8838;50.144;8.176;2023-02-01T01:50:01;8.63;;;6.20;;
17441;SDS011;8838;50.144;8.176;2023-02-01T01:52:30;9.10;;;5.87;;
17441;SDS011;8838;50.144;8.176;2023-02-01T01:54:56;10.20;;;5.87;;
17441;SDS011;8838;50.144;8.176;2023-02-01T01:57:26;8.20;;;5.97;;
17441;SDS011;8838;50.144;8.176;2023-02-01T01:59:56;10.27;;;5.90;;
17441;SDS011;8838;50.144;8.176;2023-02-01T02:02:32;11.53;;;5.73;;
17441;SDS011;8838;50.144;8.176;2023-02-01T02:04:59;8.10;;;5.47;;
17441;SDS011;8838;50.144;8.176;2023-02-01T02:07:26;9.73;;;5.30;;
17441;SDS011;8838;50.144;8.176;2023-02-01T02:09:56;6.80;;;4.80;;
17441;SDS011;8838;50.144;8.176;2023-02-01T02:12:23;6.77;;;4.80;;
17441;SDS011;8838;50.144;8.176;2023-02-01T02:14:50;7.67;;;4.33;;
17441;SDS011;8838;50.144;8.176;2023-02-01T02:17:25;7.90;;;4.40;;
17441;SDS011;8838;50.144;8.176;2023-02-01T02:23:08;7.83;;;4.23;;
17441;SDS011;8838;50.144;8.176;2023-02-01T02:32:21;9.13;;;4.10;;
17441;SDS011;8838;50.144;8.176;2023-02-01T02:35:27;10.07;;;3.80;;
17441;SDS011;8838;50.144;8.176;2023-02-01T02:38:02;20.93;;;4.30;;
17441;SDS011;8838;50.144;8.176;2023-02-01T02:40:41;7.10;;;3.73;;
17441;SDS011;8838;50.144;8.176;2023-02-01T02:43:15;8.47;;;4.10;;
17441;SDS011;8838;50.144;8.176;2023-02-01T02:46:06;7.67;;;3.50;;
17441;SDS011;8838;50.144;8.176;2023-02-01T02:49:01;7.77;;;3.70;;
17441;SDS011;8838;50.144;8.176;2023-02-01T02:51:34;9.13;;;3.20;;
17441;SDS011;8838;50.144;8.176;2023-02-01T02:54:25;9.90;;;3.40;;
17441;SDS011;8838;50.144;8.176;2023-02-01T02:57:17;9.90;;;3.60;;
17441;SDS011;8838;50.144;8.176;2023-02-01T03:00:05;7.30;;;3.60;;
17441;SDS011;8838;50.144;8.176;2023-02-01T03:02:52;7.47;;;3.33;;
17441;SDS011;8838;50.144;8.176;2023-02-01T03:05:40;8.53;;;3.43;;
17441;SDS011;8838;50.144;8.176;2023-02-01T03:08:11;8.67;;;3.27;;
17441;SDS011;8838;50.144;8.176;2023-02-01T03:10:44;9.13;;;3.43;;
17441;SDS011;8838;50.144;8.176;2023-02-01T03:13:19;10.47;;;3.77;;
17441;SDS011;8838;50.144;8.176;2023-02-01T03:15:53;8.07;;;3.23;;
17441;SDS011;8838;50.144;8.176;2023-02-01T03:18:26;5.87;;;3.27;;
17441;SDS011;8838;50.144;8.176;2023-02-01T03:20:58;7.93;;;3.00;;
17441;SDS011;8838;50.144;8.176;2023-02-01T03:23:34;10.37;;;3.83;;
17441;SDS011;8838;50.144;8.176;2023-02-01T03:26:04;9.80;;;3.37;;
17441;SDS011;8838;50.144;8.176;2023-02-01T03:28:34;5.87;;;3.10;;
17441;SDS011;8838;50.144;8.176;2023-02-01T03:31:05;8.93;;;3.40;;
17441;SDS011;8838;50.144;8.176;2023-02-01T03:33:32;7.27;;;3.23;;
17441;SDS011;8838;50.144;8.176;2023-02-01T03:36:01;7.83;;;3.20;;
17441;SDS011;8838;50.144;8.176;2023-02-01T03:38:50;6.00;;;3.23;;
17441;SDS011;8838;50.144;8.176;2023-02-01T03:41:23;10.60;;;3.23;;
17441;SDS011;8838;50.144;8.176;2023-02-01T03:43:55;7.83;;;3.30;;
17441;SDS011;8838;50.144;8.176;2023-02-01T03:46:26;7.93;;;3.20;;
17441;SDS011;8838;50.144;8.176;2023-02-01T03:48:59;12.30;;;3.57;;
17441;SDS011;8838;50.144;8.176;2023-02-01T03:51:29;7.73;;;3.60;;
17441;SDS011;8838;50.144;8.176;2023-02-01T03:53:59;6.83;;;3.67;;
17441;SDS011;8838;50.144;8.176;2023-02-01T03:56:29;9.40;;;4.13;;
17441;SDS011;8838;50.144;8.176;2023-02-01T03:58:57;9.00;;;4.07;;
17441;SDS011;8838;50.144;8.176;2023-02-01T04:01:26;9.97;;;3.83;;
17441;SDS011;8838;50.144;8.176;2023-02-01T04:03:54;14.27;;;4.17;;
17441;SDS011;8838;50.144;8.176;2023-02-01T04:06:21;8.80;;;3.50;;
17441;SDS011;8838;50.144;8.176;2023-02-01T04:08:48;10.93;;;3.90;;
17441;SDS011;8838;50.144;8.176;2023-02-01T04:11:17;11.87;;;4.00;;
17441;SDS011;8838;50.144;8.176;2023-02-01T04:13:44;9.80;;;3.90;;
17441;SDS011;8838;50.144;8.176;2023-02-01T04:16:11;16.80;;;4.60;;
17441;SDS011;8838;50.144;8.176;2023-02-01T04:18:38;10.47;;;4.10;;
17441;SDS011;8838;50.144;8.176;2023-02-01T04:21:05;8.23;;;4.03;;
17441;SDS011;8838;50.144;8.176;2023-02-01T04:23:32;8.20;;;3.90;;
17441;SDS011;8838;50.144;8.176;2023-02-01T04:25:59;10.27;;;4.30;;
17441;SDS011;8838;50.144;8.176;2023-02-01T04:28:28;14.93;;;4.67;;
17441;SDS011;8838;50.144;8.176;2023-02-01T04:30:55;13.33;;;4.53;;
17441;SDS011;8838;50.144;8.176;2023-02-01T04:33:22;13.67;;;4.23;;
17441;SDS011;8838;50.144;8.176;2023-02-01T04:35:49;12.77;;;4.03;;
17441;SDS011;8838;50.144;8.176;2023-02-01T04:38:15;11.80;;;4.07;;
17441;SDS011;8838;50.144;8.176;2023-02-01T04:40:42;12.73;;;4.27;;
17441;SDS011;8838;50.144;8.176;2023-02-01T04:43:12;15.43;;;3.67;;
17441;SDS011;8838;50.144;8.176;2023-02-01T04:45:40;13.33;;;4.23;;
17441;SDS011;8838;50.144;8.176;2023-02-01T04:48:07;13.00;;;3.93;;
17441;SDS011;8838;50.144;8.176;2023-02-01T04:50:34;15.37;;;3.70;;
17441;SDS011;8838;50.144;8.176;2023-02-01T04:53:01;16.83;;;4.17;;
17441;SDS011;8838;50.144;8.176;2023-02-01T04:55:28;22.13;;;4.57;;
17441;SDS011;8838;50.144;8.176;2023-02-01T04:57:55;15.10;;;3.90;;
17441;SDS011;8838;50.144;8.176;2023-02-01T05:00:22;11.20;;;3.80;;
17441;SDS011;8838;50.144;8.176;2023-02-01T05:02:51;15.53;;;3.90;;
17441;SDS011;8838;50.144;8.176;2023-02-01T05:05:18;13.67;;;3.70;;
17441;SDS011;8838;50.144;8.176;2023-02-01T05:07:45;18.07;;;4.33;;
17441;SDS011;8838;50.144;8.176;2023-02-01T05:10:12;16.40;;;4.00;;
17441;SDS011;8838;50.144;8.176;2023-02-01T05:12:39;13.00;;;3.70;;
17441;SDS011;8838;50.144;8.176;2023-02-01T05:15:23;15.17;;;4.50;;
17441;SDS011;8838;50.144;8.176;2023-02-01T05:17:54;17.03;;;4.20;;
17441;SDS011;8838;50.144;8.176;2023-02-01T05:20:21;13.97;;;4.33;;
17441;SDS011;8838;50.144;8.176;2023-02-01T05:22:48;19.70;;;4.50;;
17441;SDS011;8838;50.144;8.176;2023-02-01T05:25:15;19.90;;;4.80;;
17441;SDS011;8838;50.144;8.176;2023-02-01T05:27:42;17.37;;;4.23;;
17441;SDS011;8838;50.144;8.176;2023-02-01T05:30:09;20.23;;;4.33;;
17441;SDS011;8838;50.144;8.176;2023-02-01T05:32:37;18.13;;;4.20;;
17441;SDS011;8838;50.144;8.176;2023-02-01T05:35:05;16.50;;;4.57;;
17441;SDS011;8838;50.144;8.176;2023-02-01T05:37:33;17.17;;;4.43;;
17441;SDS011;8838;50.144;8.176;2023-02-01T05:40:00;21.53;;;3.90;;
17441;SDS011;8838;50.144;8.176;2023-02-01T05:42:27;18.73;;;4.70;;
17441;SDS011;8838;50.144;8.176;2023-02-01T05:44:54;18.07;;;4.27;;
17441;SDS011;8838;50.144;8.176;2023-02-01T05:47:20;13.60;;;4.00;;
17441;SDS011;8838;50.144;8.176;2023-02-01T05:49:48;19.83;;;5.00;;
17441;SDS011;8838;50.144;8.176;2023-02-01T05:52:16;17.53;;;4.80;;
17441;SDS011;8838;50.144;8.176;2023-02-01T05:54:44;23.10;;;5.30;;
17441;SDS011;8838;50.144;8.176;2023-02-01T05:57:12;15.97;;;4.90;;
17441;SDS011;8838;50.144;8.176;2023-02-01T05:59:39;19.10;;;5.27;;
17441;SDS011;8838;50.144;8.176;2023-02-01T06:02:09;20.00;;;4.87;;
17441;SDS011;8838;50.144;8.176;2023-02-01T06:04:36;15.97;;;4.43;;
17441;SDS011;8838;50.144;8.176;2023-02-01T06:07:04;17.43;;;4.73;;
17441;SDS011;8838;50.144;8.176;2023-02-01T06:09:33;20.27;;;4.57;;
17441;SDS011;8838;50.144;8.176;2023-02-01T06:12:00;14.17;;;4.50;;
17441;SDS011;8838;50.144;8.176;2023-02-01T06:14:27;19.73;;;5.23;;
17441;SDS011;8838;50.144;8.176;2023-02-01T06:16:54;15.50;;;4.47;;
17441;SDS011;8838;50.144;8.176;2023-02-01T06:19:21;17.33;;;4.77;;
17441;SDS011;8838;50.144;8.176;2023-02-01T06:21:48;17.77;;;4.60;;
17441;SDS011;8838;50.144;8.176;2023-02-01T06:24:15;14.77;;;4.93;;
17441;SDS011;8838;50.144;8.176;2023-02-01T06:26:44;17.80;;;5.30;;
17441;SDS011;8838;50.144;8.176;2023-02-01T06:29:12;19.63;;;5.23;;
17441;SDS011;8838;50.144;8.176;2023-02-01T06:31:39;19.87;;;5.43;;
17441;SDS011;8838;50.144;8.176;2023-02-01T06:34:07;18.10;;;4.73;;
17441;SDS011;8838;50.144;8.176;2023-02-01T06:36:35;15.43;;;4.20;;
17441;SDS011;8838;50.144;8.176;2023-02-01T06:39:02;16.10;;;4.20;;
17441;SDS011;8838;50.144;8.176;2023-02-01T06:41:29;17.77;;;4.20;;
17441;SDS011;8838;50.144;8.176;2023-02-01T06:43:59;19.70;;;4.77;;
17441;SDS011;8838;50.144;8.176;2023-02-01T06:46:26;19.20;;;4.37;;
17441;SDS011;8838;50.144;8.176;2023-02-01T06:48:53;15.20;;;4.33;;
17441;SDS011;8838;50.144;8.176;2023-02-01T06:51:21;17.83;;;4.17;;
17441;SDS011;8838;50.144;8.176;2023-02-01T06:53:49;17.93;;;4.10;;
17441;SDS011;8838;50.144;8.176;2023-02-01T06:56:17;22.30;;;4.63;;
17441;SDS011;8838;50.144;8.176;2023-02-01T06:58:43;17.33;;;3.90;;
17441;SDS011;8838;50.144;8.176;2023-02-01T07:01:12;14.53;;;3.60;;
17441;SDS011;8838;50.144;8.176;2023-02-01T07:03:39;17.03;;;3.80;;
17441;SDS011;8838;50.144;8.176;2023-02-01T07:06:07;22.90;;;3.90;;
17441;SDS011;8838;50.144;8.176;2023-02-01T07:08:36;17.07;;;3.50;;
17441;SDS011;8838;50.144;8.176;2023-02-01T07:11:04;16.00;;;3.27;;
17441;SDS011;8838;50.144;8.176;2023-02-01T07:13:32;16.43;;;3.77;;
17441;SDS011;8838;50.144;8.176;2023-02-01T07:15:59;13.33;;;3.63;;
17441;SDS011;8838;50.144;8.176;2023-02-01T07:18:28;13.80;;;3.30;;
17441;SDS011;8838;50.144;8.176;2023-02-01T07:20:56;19.93;;;4.13;;
17441;SDS011;8838;50.144;8.176;2023-02-01T07:23:23;13.07;;;3.10;;
17441;SDS011;8838;50.144;8.176;2023-02-01T07:25:52;20.47;;;3.77;;
17441;SDS011;8838;50.144;8.176;2023-02-01T07:28:19;17.30;;;3.60;;
17441;SDS011;8838;50.144;8.176;2023-02-01T07:30:46;14.23;;;3.40;;
17441;SDS011;8838;50.144;8.176;2023-02-01T07:33:17;16.20;;;3.73;;
17441;SDS011;8838;50.144;8.176;2023-02-01T07:35:46;22.60;;;3.60;;
17441;SDS011;8838;50.144;8.176;2023-02-01T07:38:13;15.93;;;3.80;;
17441;SDS011;8838;50.144;8.176;2023-02-01T07:40:40;12.63;;;3.40;;
17441;SDS011;8838;50.144;8.176;2023-02-01T07:43:07;15.57;;;3.70;;
17441;SDS011;8838;50.144;8.176;2023-02-01T07:45:34;19.77;;;4.03;;
17441;SDS011;8838;50.144;8.176;2023-02-01T07:48:02;13.87;;;3.33;;
17441;SDS011;8838;50.144;8.176;2023-02-01T07:50:29;11.47;;;3.20;;
17441;SDS011;8838;50.144;8.176;2023-02-01T07:52:59;20.57;;;3.37;;
17441;SDS011;8838;50.144;8.176;2023-02-01T07:55:26;16.23;;;3.93;;
17441;SDS011;8838;50.144;8.176;2023-02-01T07:57:56;20.23;;;3.73;;
17441;SDS011;8838;50.144;8.176;2023-02-01T08:00:23;15.43;;;3.57;;
17441;SDS011;8838;50.144;8.176;2023-02-01T08:03:08;13.87;;;3.10;;
17441;SDS011;8838;50.144;8.176;2023-02-01T08:05:35;14.50;;;3.00;;
17441;SDS011;8838;50.144;8.176;2023-02-01T08:08:05;19.10;;;3.70;;
17441;SDS011;8838;50.144;8.176;2023-02-01T08:10:32;15.53;;;3.73;;
17441;SDS011;8838;50.144;8.176;2023-02-01T08:13:01;17.10;;;3.33;;
17441;SDS011;8838;50.144;8.176;2023-02-01T08:15:29;17.60;;;3.23;;
17441;SDS011;8838;50.144;8.176;2023-02-01T08:17:56;13.93;;;2.90;;
17441;SDS011;8838;50.144;8.176;2023-02-01T08:20:24;18.57;;;3.47;;
17441;SDS011;8838;50.144;8.176;2023-02-01T08:22:52;17.30;;;3.30;;
17441;SDS011;8838;50.144;8.176;2023-02-01T08:25:20;11.80;;;3.20;;
17441;SDS011;8838;50.144;8.176;2023-02-01T08:27:47;16.87;;;3.10;;
17441;SDS011;8838;50.144;8.176;2023-02-01T08:30:14;13.10;;;3.20;;
17441;SDS011;8838;50.144;8.176;2023-02-01T08:32:42;15.20;;;3.43;;
17441;SDS011;8838;50.144;8.176;2023-02-01T08:35:08;8.77;;;2.63;;
17441;SDS011;8838;50.144;8.176;2023-02-01T08:37:35;16.17;;;3.47;;
17441;SDS011;8838;50.144;8.176;2023-02-01T08:40:02;12.10;;;2.80;;
17441;SDS011;8838;50.144;8.176;2023-02-01T08:42:31;12.67;;;3.30;;
17441;SDS011;8838;50.144;8.176;2023-02-01T08:45:18;15.97;;;3.20;;
17441;SDS011;8838;50.144;8.176;2023-02-01T08:47:45;19.63;;;3.20;;
17441;SDS011;8838;50.144;8.176;2023-02-01T08:50:13;16.43;;;2.93;;
17441;SDS011;8838;50.144;8.176;2023-02-01T08:52:40;15.50;;;3.00;;
17441;SDS011;8838;50.144;8.176;2023-02-01T08:55:08;11.17;;;3.63;;
17441;SDS011;8838;50.144;8.176;2023-02-01T08:57:37;14.00;;;4.60;;
17441;SDS011;8838;50.144;8.176;2023-02-01T09:00:05;13.53;;;3.77;;
17441;SDS011;8838;50.144;8.176;2023-02-01T09:02:33;14.20;;;3.20;;
17441;SDS011;8838;50.144;8.176;2023-02-01T09:05:00;14.63;;;3.07;;
17441;SDS011;8838;50.144;8.176;2023-02-01T09:07:28;13.67;;;3.33;;
17441;SDS011;8838;50.144;8.176;2023-02-01T09:09:55;12.97;;;3.20;;
17441;SDS011;8838;50.144;8.176;2023-02-01T09:12:25;14.63;;;3.17;;
17441;SDS011;8838;50.144;8.176;2023-02-01T09:14:54;18.43;;;3.83;;
17441;SDS011;8838;50.144;8.176;2023-02-01T09:17:21;14.57;;;3.00;;
17441;SDS011;8838;50.144;8.176;2023-02-01T09:19:48;11.63;;;2.63;;
17441;SDS011;8838;50.144;8.176;2023-02-01T09:22:14;19.47;;;3.20;;
17441;SDS011;8838;50.144;8.176;2023-02-01T09:24:41;13.43;;;3.00;;
17441;SDS011;8838;50.144;8.176;2023-02-01T09:27:08;10.50;;;2.53;;
17441;SDS011;8838;50.144;8.176;2023-02-01T09:29:35;20.27;;;3.70;;
17441;SDS011;8838;50.144;8.176;2023-02-01T09:32:03;12.23;;;3.00;;
17441;SDS011;8838;50.144;8.176;2023-02-01T09:34:31;14.97;;;3.30;;
17441;SDS011;8838;50.144;8.176;2023-02-01T09:36:58;16.70;;;3.47;;
17441;SDS011;8838;50.144;8.176;2023-02-01T09:39:25;17.07;;;2.77;;
17441;SDS011;8838;50.144;8.176;2023-02-01T09:41:57;10.80;;;2.93;;
17441;SDS011;8838;50.144;8.176;2023-02-01T09:44:44;12.77;;;3.00;;
17441;SDS011;8838;50.144;8.176;2023-02-01T09:47:21;13.13;;;2.70;;
17441;SDS011;8838;50.144;8.176;2023-02-01T09:49:51;17.37;;;3.20;;
17441;SDS011;8838;50.144;8.176;2023-02-01T09:52:23;14.23;;;2.83;;
17441;SDS011;8838;50.144;8.176;2023-02-01T09:54:59;14.47;;;3.03;;
17441;SDS011;8838;50.144;8.176;2023-02-01T09:57:50;11.90;;;2.73;;
17441;SDS011;8838;50.144;8.176;2023-02-01T10:00:22;9.90;;;2.87;;
17441;SDS011;8838;50.144;8.176;2023-02-01T10:02:53;10.63;;;2.80;;
17441;SDS011;8838;50.144;8.176;2023-02-01T10:05:23;12.73;;;2.93;;
17441;SDS011;8838;50.144;8.176;2023-02-01T10:08:04;14.87;;;3.10;;
17441;SDS011;8838;50.144;8.176;2023-02-01T10:10:45;11.83;;;3.07;;
17441;SDS011;8838;50.144;8.176;2023-02-01T10:13:22;18.83;;;3.47;;
17441;SDS011;8838;50.144;8.176;2023-02-01T10:16:11;16.40;;;3.17;;
17441;SDS011;8838;50.144;8.176;2023-02-01T10:18:54;15.67;;;2.87;;
17441;SDS011;8838;50.144;8.176;2023-02-01T10:21:46;13.50;;;2.70;;
17441;SDS011;8838;50.144;8.176;2023-02-01T10:24:39;14.13;;;3.00;;
17441;SDS011;8838;50.144;8.176;2023-02-01T10:27:12;14.63;;;3.07;;
17441;SDS011;8838;50.144;8.176;2023-02-01T10:29:41;12.20;;;2.60;;
17441;SDS011;8838;50.144;8.176;2023-02-01T10:32:12;16.70;;;2.83;;
17441;SDS011;8838;50.144;8.176;2023-02-01T10:34:42;14.43;;;2.80;;
17441;SDS011;8838;50.144;8.176;2023-02-01T10:37:17;12.57;;;3.10;;
17441;SDS011;8838;50.144;8.176;2023-02-01T10:39:52;12.40;;;2.87;;
17441;SDS011;8838;50.144;8.176;2023-02-01T10:42:24;11.50;;;2.57;;
17441;SDS011;8838;50.144;8.176;2023-02-01T10:44:52;17.83;;;4.97;;
17441;SDS011;8838;50.144;8.176;2023-02-01T10:47:22;13.60;;;3.07;;
17441;SDS011;8838;50.144;8.176;2023-02-01T10:49:52;14.60;;;3.17;;
17441;SDS011;8838;50.144;8.176;2023-02-01T10:52:25;13.80;;;2.90;;
17441;SDS011;8838;50.144;8.176;2023-02-01T10:57:55;21.37;;;3.43;;
17441;SDS011;8838;50.144;8.176;2023-02-01T11:00:24;12.00;;;2.93;;
17441;SDS011;8838;50.144;8.176;2023-02-01T11:02:51;14.50;;;2.73;;
17441;SDS011;8838;50.144;8.176;2023-02-01T11:05:20;10.90;;;2.87;;
17441;SDS011;8838;50.144;8.176;2023-02-01T11:07:49;12.57;;;3.00;;
17441;SDS011;8838;50.144;8.176;2023-02-01T11:10:35;15.60;;;3.37;;
17441;SDS011;8838;50.144;8.176;2023-02-01T11:13:05;13.37;;;2.83;;
17441;SDS011;8838;50.144;8.176;2023-02-01T11:15:42;14.77;;;2.67;;
17441;SDS011;8838;50.144;8.176;2023-02-01T11:18:14;10.63;;;2.60;;
17441;SDS011;8838;50.144;8.176;2023-02-01T11:20:44;9.57;;;2.90;;
17441;SDS011;8838;50.144;8.176;2023-02-01T11:23:14;13.80;;;2.87;;
17441;SDS011;8838;50.144;8.176;2023-02-01T11:25:49;13.87;;;2.87;;
17441;SDS011;8838;50.144;8.176;2023-02-01T11:28:19;13.63;;;2.57;;
17441;SDS011;8838;50.144;8.176;2023-02-01T11:30:49;17.60;;;3.10;;
17441;SDS011;8838;50.144;8.176;2023-02-01T11:33:20;14.77;;;3.07;;
17441;SDS011;8838;50.144;8.176;2023-02-01T11:35:55;13.80;;;2.30;;
17441;SDS011;8838;50.144;8.176;2023-02-01T11:38:26;9.80;;;2.80;;
17441;SDS011;8838;50.144;8.176;2023-02-01T11:40:55;12.73;;;2.70;;
17441;SDS011;8838;50.144;8.176;2023-02-01T11:43:37;13.10;;;2.50;;
17441;SDS011;8838;50.144;8.176;2023-02-01T11:46:18;11.37;;;2.47;;
17441;SDS011;8838;50.144;8.176;2023-02-01T11:48:50;14.33;;;3.00;;
17441;SDS011;8838;50.144;8.176;2023-02-01T11:51:21;13.33;;;2.87;;
17441;SDS011;8838;50.144;8.176;2023-02-01T11:54:03;13.90;;;2.73;;
17441;SDS011;8838;50.144;8.176;2023-02-01T11:56:41;15.70;;;3.00;;
17441;SDS011;8838;50.144;8.176;2023-02-01T11:59:22;11.70;;;2.63;;
17441;SDS011;8838;50.144;8.176;2023-02-01T12:02:03;14.70;;;2.40;;
17441;SDS011;8838;50.144;8.176;2023-02-01T12:04:54;13.97;;;2.93;;
17441;SDS011;8838;50.144;8.176;2023-02-01T12:07:36;17.50;;;3.20;;
17441;SDS011;8838;50.144;8.176;2023-02-01T12:10:19;14.00;;;2.53;;
17441;SDS011;8838;50.144;8.176;2023-02-01T12:12:57;13.37;;;2.73;;
17441;SDS011;8838;50.144;8.176;2023-02-01T12:15:38;12.20;;;2.50;;
17441;SDS011;8838;50.144;8.176;2023-02-01T12:24:15;12.50;;;2.60;;
17441;SDS011;8838;50.144;8.176;2023-02-01T12:27:06;12.07;;;2.63;;
17441;SDS011;8838;50.144;8.176;2023-02-01T12:29:48;12.00;;;2.87;;
17441;SDS011;8838;50.144;8.176;2023-02-01T12:32:30;12.03;;;3.33;;
17441;SDS011;8838;50.144;8.176;2023-02-01T12:35:13;10.40;;;2.63;;
17441;SDS011;8838;50.144;8.176;2023-02-01T12:38:02;14.90;;;2.87;;
17441;SDS011;8838;50.144;8.176;2023-02-01T12:40:50;14.30;;;3.00;;
17441;SDS011;8838;50.144;8.176;2023-02-01T12:43:36;11.27;;;2.93;;
17441;SDS011;8838;50.144;8.176;2023-02-01T12:46:07;16.47;;;3.13;;
17441;SDS011;8838;50.144;8.176;2023-02-01T12:48:37;17.13;;;3.30;;
17441;SDS011;8838;50.144;8.176;2023-02-01T12:51:09;12.07;;;2.40;;
17441;SDS011;8838;50.144;8.176;2023-02-01T12:53:43;11.67;;;2.37;;
17441;SDS011;8838;50.144;8.176;2023-02-01T12:56:16;9.83;;;2.40;;
17441;SDS011;8838;50.144;8.176;2023-02-01T12:58:49;12.83;;;2.80;;
17441;SDS011;8838;50.144;8.176;2023-02-01T13:01:20;14.23;;;3.07;;
17441;SDS011;8838;50.144;8.176;2023-02-01T13:03:55;18.00;;;3.00;;
17441;SDS011;8838;50.144;8.176;2023-02-01T13:06:28;12.40;;;2.40;;
17441;SDS011;8838;50.144;8.176;2023-02-01T13:09:00;13.23;;;2.90;;
17441;SDS011;8838;50.144;8.176;2023-02-01T13:11:33;11.93;;;2.50;;
17441;SDS011;8838;50.144;8.176;2023-02-01T13:14:03;15.17;;;2.93;;
17441;SDS011;8838;50.144;8.176;2023-02-01T13:16:34;11.53;;;2.27;;
17441;SDS011;8838;50.144;8.176;2023-02-01T13:19:08;12.93;;;2.33;;
17441;SDS011;8838;50.144;8.176;2023-02-01T13:21:42;14.60;;;2.30;;
17441;SDS011;8838;50.144;8.176;2023-02-01T13:24:17;10.50;;;2.23;;
17441;SDS011;8838;50.144;8.176;2023-02-01T13:26:57;11.07;;;2.17;;
17441;SDS011;8838;50.144;8.176;2023-02-01T13:29:25;13.33;;;2.97;;
17441;SDS011;8838;50.144;8.176;2023-02-01T13:31:58;11.73;;;2.70;;
17441;SDS011;8838;50.144;8.176;2023-02-01T13:34:48;15.33;;;2.33;;
17441;SDS011;8838;50.144;8.176;2023-02-01T13:37:33;12.97;;;2.70;;
17441;SDS011;8838;50.144;8.176;2023-02-01T13:40:17;24.80;;;2.70;;
17441;SDS011;8838;50.144;8.176;2023-02-01T13:42:54;13.10;;;2.30;;
17441;SDS011;8838;50.144;8.176;2023-02-01T13:45:25;15.07;;;2.67;;
17441;SDS011;8838;50.144;8.176;2023-02-01T13:47:54;11.73;;;2.97;;
17441;SDS011;8838;50.144;8.176;2023-02-01T13:50:24;17.80;;;3.10;;
17441;SDS011;8838;50.144;8.176;2023-02-01T13:52:56;15.80;;;2.83;;
17441;SDS011;8838;50.144;8.176;2023-02-01T13:55:28;13.93;;;2.60;;
17441;SDS011;8838;50.144;8.176;2023-02-01T13:58:01;18.37;;;2.47;;
17441;SDS011;8838;50.144;8.176;2023-02-01T14:00:32;12.07;;;2.20;;
17441;SDS011;8838;50.144;8.176;2023-02-01T14:03:11;13.17;;;2.40;;
17441;SDS011;8838;50.144;8.176;2023-02-01T14:06:02;15.30;;;2.63;;
17441;SDS011;8838;50.144;8.176;2023-02-01T14:08:45;13.13;;;2.47;;
17441;SDS011;8838;50.144;8.176;2023-02-01T14:11:37;12.23;;;2.70;;
17441;SDS011;8838;50.144;8.176;2023-02-01T14:23:14;10.87;;;2.10;;
17441;SDS011;8838;50.144;8.176;2023-02-01T14:25:44;13.23;;;2.50;;
17441;SDS011;8838;50.144;8.176;2023-02-01T14:28:19;14.83;;;2.50;;
17441;SDS011;8838;50.144;8.176;2023-02-01T14:30:51;14.13;;;2.67;;
17441;SDS011;8838;50.144;8.176;2023-02-01T14:33:21;10.43;;;2.43;;
17441;SDS011;8838;50.144;8.176;2023-02-01T14:36:02;13.97;;;2.03;;
17441;SDS011;8838;50.144;8.176;2023-02-01T14:43:51;11.83;;;2.33;;
17441;SDS011;8838;50.144;8.176;2023-02-01T14:49:52;13.97;;;2.40;;
17441;SDS011;8838;50.144;8.176;2023-02-01T14:52:22;8.77;;;2.17;;
17441;SDS011;8838;50.144;8.176;2023-02-01T14:55:04;14.90;;;2.40;;
17441;SDS011;8838;50.144;8.176;2023-02-01T14:57:36;12.73;;;2.33;;
17441;SDS011;8838;50.144;8.176;2023-02-01T15:00:08;5.53;;;1.90;;
17441;SDS011;8838;50.144;8.176;2023-02-01T15:02:43;11.83;;;2.70;;
17441;SDS011;8838;50.144;8.176;2023-02-01T15:05:27;14.60;;;2.77;;
17441;SDS011;8838;50.144;8.176;2023-02-01T15:07:57;15.20;;;2.63;;
17441;SDS011;8838;50.144;8.176;2023-02-01T15:10:29;15.50;;;2.63;;
17441;SDS011;8838;50.144;8.176;2023-02-01T15:12:59;16.57;;;2.50;;
17441;SDS011;8838;50.144;8.176;2023-02-01T15:15:26;13.13;;;2.27;;
17441;SDS011;8838;50.144;8.176;2023-02-01T15:17:58;8.20;;;2.03;;
17441;SDS011;8838;50.144;8.176;2023-02-01T15:20:27;14.07;;;2.90;;
17441;SDS011;8838;50.144;8.176;2023-02-01T15:22:56;15.80;;;3.43;;
17441;SDS011;8838;50.144;8.176;2023-02-01T15:25:24;19.20;;;6.77;;
17441;SDS011;8838;50.144;8.176;2023-02-01T15:27:53;43.10;;;19.97;;
17441;SDS011;8838;50.144;8.176;2023-02-01T15:30:21;32.97;;;12.03;;
17441;SDS011;8838;50.144;8.176;2023-02-01T15:32:49;14.30;;;3.53;;
17441;SDS011;8838;50.144;8.176;2023-02-01T15:35:38;20.13;;;8.13;;
17441;SDS011;8838;50.144;8.176;2023-02-01T15:38:25;19.87;;;5.30;;
17441;SDS011;8838;50.144;8.176;2023-02-01T15:41:01;11.03;;;2.30;;
17441;SDS011;8838;50.144;8.176;2023-02-01T15:43:32;12.73;;;2.70;;
17441;SDS011;8838;50.144;8.176;2023-02-01T15:46:02;16.03;;;5.17;;
17441;SDS011;8838;50.144;8.176;2023-02-01T15:48:35;23.20;;;6.70;;
17441;SDS011;8838;50.144;8.176;2023-02-01T15:51:06;20.27;;;6.97;;
17441;SDS011;8838;50.144;8.176;2023-02-01T15:53:39;19.80;;;8.73;;